Time;durP1;ratioP1;P1;durP2;ratioP2;P2;SDS_P1;SDS_P2;PMS_P1;PMS_P2;Temp;Humidity;BMP_temperature;BMP_pressure;BME280_temperature;BME280_humidity;BME280_pressure;Samples;Min_cycle;Max_cycle;Signal;HPM_P1;HPM_P2
2020/12/13 00:00:15;;;;;;;88.82;35.75;;;8.30;99.90;;;;;;10412635;28;20561;-68
2020/12/13 00:05:16;;;;;;;99.57;38.40;;;8.30;99.90;;;;;;10413088;28;20477;-67
2020/12/13 00:10:18;;;;;;;119.30;40.20;;;8.10;99.90;;;;;;10421311;28;20045;-67
2020/12/13 00:15:20;;;;;;;92.93;37.78;;;8.20;99.90;;;;;;10413011;28;20103;-67
2020/12/13 00:20:22;;;;;;;105.63;41.35;;;8.20;99.90;;;;;;10412979;28;20081;-67
2020/12/13 00:25:23;;;;;;;100.00;41.65;;;8.30;99.90;;;;;;10413508;28;20461;-68
2020/12/13 00:30:25;;;;;;;68.05;34.28;;;8.20;99.90;;;;;;10411732;28;20141;-67
2020/12/13 00:35:28;;;;;;;74.70;34.85;;;8.20;99.90;;;;;;10411845;28;20401;-67
2020/12/13 00:40:29;;;;;;;98.43;39.85;;;8.30;99.90;;;;;;10411616;28;20133;-67
2020/12/13 00:45:31;;;;;;;93.53;39.42;;;8.30;99.90;;;;;;10410237;28;20088;-67
2020/12/13 00:50:33;;;;;;;100.22;40.92;;;8.30;99.90;;;;;;10426298;28;20061;-67
2020/12/13 00:55:35;;;;;;;93.22;39.13;;;8.30;99.90;;;;;;10411460;28;20049;-67
2020/12/13 01:00:39;;;;;;;85.20;37.03;;;8.30;99.90;;;;;;10408986;28;20147;-67
2020/12/13 01:05:41;;;;;;;123.05;43.05;;;8.30;99.90;;;;;;10410660;28;20049;-67
2020/12/13 01:10:42;;;;;;;103.75;41.85;;;8.30;99.90;;;;;;10410348;28;20107;-67
2020/12/13 01:15:43;;;;;;;104.38;42.30;;;8.20;99.90;;;;;;10406969;28;20099;-68
2020/12/13 01:20:45;;;;;;;94.25;38.00;;;8.20;99.90;;;;;;10408215;28;20049;-68
2020/12/13 01:25:47;;;;;;;87.43;35.67;;;8.20;99.90;;;;;;10385509;28;20045;-68
2020/12/13 01:30:48;;;;;;;105.68;40.63;;;8.10;99.90;;;;;;10424663;28;20057;-67
2020/12/13 01:35:50;;;;;;;108.95;39.78;;;8.10;99.90;;;;;;10408904;28;20315;-67
2020/12/13 01:40:56;;;;;;;129.20;40.72;;;8.20;99.90;;;;;;10409570;28;20103;-68
2020/12/13 01:45:57;;;;;;;100.93;38.70;;;8.20;99.90;;;;;;10409088;28;20128;-67
2020/12/13 01:56:11;;;;;;;74.05;32.95;;;8.20;99.90;;;;;;10409129;28;20092;-67
2020/12/13 02:01:14;;;;;;;85.57;35.92;;;8.10;99.90;;;;;;10408587;28;20538;-68
2020/12/13 02:06:22;;;;;;;78.93;34.95;;;8.20;99.90;;;;;;10401624;28;20417;-68
2020/12/13 02:11:24;;;;;;;103.15;37.22;;;8.10;99.90;;;;;;10422564;28;20092;-67
2020/12/13 02:16:27;;;;;;;99.00;37.08;;;8.10;99.90;;;;;;10421895;28;20144;-67
2020/12/13 02:21:28;;;;;;;105.22;36.33;;;8.20;99.90;;;;;;10423316;28;20422;-67
2020/12/13 02:26:30;;;;;;;85.75;34.45;;;8.20;99.90;;;;;;10422826;28;20140;-67
2020/12/13 02:31:32;;;;;;;93.60;35.33;;;8.20;99.90;;;;;;10421756;28;20085;-67
2020/12/13 02:36:34;;;;;;;110.50;37.85;;;8.20;99.90;;;;;;10429261;28;20124;-68
2020/12/13 02:41:36;;;;;;;146.43;43.08;;;8.20;99.90;;;;;;10451800;28;20080;-67
2020/12/13 02:46:37;;;;;;;122.45;39.58;;;8.10;99.90;;;;;;10421896;28;20470;-67
2020/12/13 02:51:39;;;;;;;152.40;43.28;;;8.10;99.90;;;;;;10423608;28;20064;-67
2020/12/13 02:56:42;;;;;;;139.38;42.92;;;8.10;99.90;;;;;;10422360;28;20132;-67
2020/12/13 03:01:43;;;;;;;135.75;41.13;;;8.20;99.90;;;;;;10430363;28;20052;-67
2020/12/13 03:06:44;;;;;;;109.50;38.70;;;8.30;99.90;;;;;;10435079;28;20046;-67
2020/12/13 03:11:46;;;;;;;101.30;37.90;;;8.20;99.90;;;;;;10421132;28;20128;-68
2020/12/13 03:16:47;;;;;;;117.68;40.55;;;8.20;99.90;;;;;;10417787;28;20073;-68
2020/12/13 03:21:49;;;;;;;109.95;37.95;;;8.20;99.90;;;;;;10413721;28;20103;-67
2020/12/13 03:26:53;;;;;;;145.43;42.30;;;8.10;99.90;;;;;;10415008;28;20075;-67
2020/12/13 03:31:55;;;;;;;121.40;40.33;;;8.10;99.90;;;;;;10414672;28;20425;-67
2020/12/13 03:36:57;;;;;;;157.20;43.35;;;8.20;99.90;;;;;;10414352;28;20414;-67
2020/12/13 03:41:58;;;;;;;136.43;39.88;;;8.20;99.90;;;;;;10415888;28;20077;-67
2020/12/13 03:47:00;;;;;;;132.90;39.80;;;8.20;99.90;;;;;;10374210;28;20103;-67
2020/12/13 03:52:01;;;;;;;129.27;38.88;;;8.20;99.90;;;;;;10415435;28;20053;-67
2020/12/13 03:57:03;;;;;;;139.63;40.85;;;8.20;99.90;;;;;;10412957;28;20047;-67
2020/12/13 04:02:04;;;;;;;136.93;41.85;;;8.20;99.90;;;;;;10414191;28;20087;-67
2020/12/13 04:07:06;;;;;;;131.27;41.35;;;8.20;99.90;;;;;;10414070;28;20498;-67
2020/12/13 04:12:07;;;;;;;142.38;43.92;;;8.20;99.90;;;;;;10413687;28;20089;-67
2020/12/13 04:17:10;;;;;;;150.10;43.03;;;8.20;99.90;;;;;;10413472;28;20041;-67
2020/12/13 04:22:11;;;;;;;149.88;43.72;;;8.30;99.90;;;;;;10413851;28;20095;-67
2020/12/13 04:27:13;;;;;;;117.57;39.88;;;8.20;99.90;;;;;;10412674;28;20053;-67
2020/12/13 04:32:14;;;;;;;132.15;42.50;;;8.30;99.90;;;;;;10428432;28;20046;-67
2020/12/13 04:37:18;;;;;;;160.45;43.63;;;8.30;99.90;;;;;;10413258;28;20399;-67
2020/12/13 04:42:24;;;;;;;142.68;43.08;;;8.30;99.90;;;;;;10414346;28;20053;-67
2020/12/13 04:47:28;;;;;;;117.18;40.80;;;8.30;99.90;;;;;;10412027;28;20124;-67
2020/12/13 04:52:31;;;;;;;132.70;41.55;;;8.20;99.90;;;;;;10444201;28;20064;-67
2020/12/13 04:57:32;;;;;;;122.90;39.70;;;8.20;99.90;;;;;;10372011;28;20483;-67
2020/12/13 05:02:34;;;;;;;133.05;42.22;;;8.30;99.90;;;;;;10411724;28;20176;-67
2020/12/13 05:07:36;;;;;;;134.50;42.63;;;8.20;99.90;;;;;;10412634;28;20049;-67
2020/12/13 05:12:37;;;;;;;124.00;39.22;;;8.10;99.90;;;;;;10411964;28;20383;-67
2020/12/13 05:17:39;;;;;;;104.88;38.78;;;8.10;99.90;;;;;;10411410;28;20048;-67
2020/12/13 05:22:43;;;;;;;144.23;41.35;;;8.10;99.90;;;;;;10412011;28;20076;-67
2020/12/13 05:27:51;;;;;;;126.90;39.22;;;8.20;99.90;;;;;;10411565;28;20050;-67
2020/12/13 05:32:59;;;;;;;179.75;46.83;;;8.20;99.90;;;;;;10410464;28;20084;-67
2020/12/13 05:38:12;;;;;;;156.75;44.00;;;8.20;99.90;;;;;;10411798;28;20128;-67
2020/12/13 05:43:20;;;;;;;140.07;42.28;;;8.10;99.90;;;;;;10410368;28;20049;-67
2020/12/13 05:53:24;;;;;;;136.90;41.45;;;8.10;99.90;;;;;;10410001;28;20398;-67
2020/12/13 05:58:29;;;;;;;153.57;43.17;;;8.20;99.90;;;;;;10410579;28;20056;-67
2020/12/13 06:03:48;;;;;;;135.25;41.72;;;8.20;99.90;;;;;;10410259;28;20060;-67
2020/12/13 06:09:05;;;;;;;156.52;46.15;;;8.20;99.90;;;;;;10410137;28;20545;-67
2020/12/13 06:14:13;;;;;;;109.50;40.42;;;8.20;99.90;;;;;;10410410;28;20054;-67
2020/12/13 06:19:20;;;;;;;144.00;44.72;;;8.20;99.90;;;;;;10410214;28;20481;-68
2020/12/13 06:24:23;;;;;;;91.50;37.15;;;8.20;99.90;;;;;;10410675;28;20046;-67
2020/12/13 06:29:26;;;;;;;105.28;38.25;;;8.20;99.90;;;;;;10409450;28;20136;-67
2020/12/13 06:34:27;;;;;;;116.32;40.45;;;8.10;99.90;;;;;;10410693;28;20055;-68
2020/12/13 06:39:29;;;;;;;91.57;36.83;;;8.10;99.90;;;;;;10410148;28;20050;-67
2020/12/13 06:44:30;;;;;;;132.60;42.03;;;8.10;99.90;;;;;;10409378;28;20049;-67
2020/12/13 06:49:32;;;;;;;148.30;44.20;;;8.20;99.90;;;;;;10409870;28;20069;-67
2020/12/13 06:54:35;;;;;;;124.90;40.13;;;8.20;99.90;;;;;;10417028;28;20143;-67
2020/12/13 06:59:44;;;;;;;75.95;34.15;;;8.10;99.90;;;;;;10417154;28;20049;-67
2020/12/13 07:04:49;;;;;;;111.10;38.08;;;8.10;99.90;;;;;;10391773;28;20080;-67
2020/12/13 07:09:52;;;;;;;98.50;36.53;;;8.20;99.90;;;;;;10415846;28;20485;-67
2020/12/13 07:14:56;;;;;;;134.77;42.58;;;8.20;99.90;;;;;;10416154;28;20115;-67
2020/12/13 07:20:00;;;;;;;114.82;40.92;;;8.10;99.90;;;;;;10416774;28;20046;-67
2020/12/13 07:25:01;;;;;;;120.68;41.00;;;8.10;99.90;;;;;;10415892;28;20137;-67
2020/12/13 07:30:03;;;;;;;104.07;36.63;;;8.00;99.90;;;;;;10415490;28;20041;-67
2020/12/13 07:35:11;;;;;;;47.70;23.38;;;8.00;99.90;;;;;;10415609;28;20502;-67
2020/12/13 07:40:13;;;;;;;33.47;19.50;;;8.20;99.90;;;;;;10415698;28;20125;-67
2020/12/13 07:45:18;;;;;;;24.27;16.20;;;8.30;99.90;;;;;;10414736;28;20137;-67
2020/12/13 07:50:20;;;;;;;25.23;16.02;;;8.50;99.90;;;;;;10415126;28;20144;-68
2020/12/13 07:55:21;;;;;;;22.85;14.20;;;8.60;99.90;;;;;;10415202;28;20042;-67
2020/12/13 08:00:23;;;;;;;22.40;15.13;;;8.60;99.90;;;;;;10414342;28;20130;-67
2020/12/13 08:05:26;;;;;;;23.10;14.38;;;8.60;99.90;;;;;;10395004;28;20059;-68
2020/12/13 08:10:28;;;;;;;18.45;12.65;;;8.70;99.90;;;;;;10413116;28;20046;-67
2020/12/13 08:15:31;;;;;;;19.20;13.40;;;8.80;99.90;;;;;;10412101;28;20132;-67
2020/12/13 08:20:38;;;;;;;19.58;13.10;;;8.80;99.90;;;;;;10412002;28;20534;-68
2020/12/13 08:25:40;;;;;;;20.23;12.48;;;9.00;99.90;;;;;;10411432;28;20448;-67
2020/12/13 08:30:42;;;;;;;24.48;13.90;;;9.00;99.90;;;;;;10398043;28;20474;-67
2020/12/13 08:35:44;;;;;;;20.20;13.00;;;9.20;99.90;;;;;;10407516;28;20050;-67
2020/12/13 08:40:46;;;;;;;23.38;12.85;;;9.30;99.90;;;;;;10402972;28;20088;-67
2020/12/13 08:45:53;;;;;;;32.50;19.63;;;9.50;99.90;;;;;;10411553;28;20068;-68
2020/12/13 08:51:10;;;;;;;24.58;16.30;;;9.60;99.90;;;;;;10411622;28;20053;-67
2020/12/13 08:56:15;;;;;;;27.00;15.10;;;9.70;99.90;;;;;;10411932;28;20135;-68
2020/12/13 09:01:18;;;;;;;86.20;31.88;;;9.50;99.90;;;;;;10410164;28;20330;-68
2020/12/13 09:06:27;;;;;;;132.65;41.70;;;9.40;99.90;;;;;;10406281;28;20053;-67
2020/12/13 09:11:30;;;;;;;110.82;39.90;;;9.20;99.90;;;;;;10408583;28;20049;-67
2020/12/13 09:16:33;;;;;;;83.65;33.58;;;9.00;99.90;;;;;;10409052;28;20486;-67
2020/12/13 09:21:42;;;;;;;27.52;15.93;;;9.10;99.90;;;;;;10410145;28;20458;-67
2020/12/13 09:27:01;;;;;;;44.45;20.13;;;9.20;99.90;;;;;;10392397;28;20085;-68
2020/12/13 09:32:04;;;;;;;49.50;20.90;;;9.40;99.90;;;;;;10382058;28;20498;-67
2020/12/13 09:37:10;;;;;;;49.85;23.02;;;9.50;99.90;;;;;;10409532;28;20045;-67
2020/12/13 09:42:12;;;;;;;52.17;24.20;;;9.60;99.90;;;;;;10410055;28;20048;-67
2020/12/13 09:47:14;;;;;;;51.83;24.77;;;9.70;99.90;;;;;;10408859;28;20054;-67
2020/12/13 09:52:16;;;;;;;20.42;13.77;;;9.70;99.90;;;;;;10409535;28;20061;-67
2020/12/13 09:57:18;;;;;;;11.93;9.02;;;9.80;99.90;;;;;;10409674;28;20504;-68
2020/12/13 10:02:20;;;;;;;11.27;7.97;;;9.90;99.90;;;;;;10408451;28;20107;-67
2020/12/13 10:12:42;;;;;;;9.48;6.75;;;10.10;99.90;;;;;;10408973;28;20111;-67
2020/12/13 10:17:43;;;;;;;10.52;7.00;;;10.20;99.90;;;;;;10407336;28;20096;-70
2020/12/13 10:22:44;;;;;;;10.95;7.68;;;10.40;99.90;;;;;;10408651;28;20103;-71
2020/12/13 10:27:46;;;;;;;10.05;7.18;;;10.60;99.90;;;;;;10413604;28;20120;-71
2020/12/13 10:32:47;;;;;;;9.73;6.15;;;10.70;99.90;;;;;;10416982;28;20088;-71
2020/12/13 10:37:49;;;;;;;11.63;5.82;;;10.70;99.90;;;;;;10416689;28;20056;-71
2020/12/13 10:42:50;;;;;;;8.82;5.85;;;10.60;99.80;;;;;;10403777;28;20124;-71
2020/12/13 10:47:52;;;;;;;8.73;5.22;;;10.50;99.80;;;;;;10414600;28;20445;-71
2020/12/13 10:52:53;;;;;;;7.80;5.10;;;10.50;99.70;;;;;;10415787;28;20502;-71
2020/12/13 10:57:55;;;;;;;8.02;4.75;;;10.60;99.10;;;;;;10416134;28;20045;-71
2020/12/13 11:02:56;;;;;;;7.13;4.13;;;10.60;98.20;;;;;;10407224;28;20134;-71
2020/12/13 11:07:58;;;;;;;7.38;4.25;;;10.80;97.60;;;;;;10423340;28;20569;-71
2020/12/13 11:13:00;;;;;;;10.68;4.50;;;11.00;97.20;;;;;;10407359;28;20107;-71
2020/12/13 11:18:02;;;;;;;7.55;3.85;;;11.10;96.50;;;;;;10404978;28;20478;-71
2020/12/13 11:23:05;;;;;;;5.32;3.30;;;11.00;95.50;;;;;;10415071;28;20132;-71
2020/12/13 11:28:07;;;;;;;5.25;3.05;;;10.90;95.30;;;;;;10415069;28;20085;-71
2020/12/13 11:33:09;;;;;;;6.32;4.00;;;11.00;94.60;;;;;;10414407;28;20053;-71
2020/12/13 11:38:10;;;;;;;5.65;3.20;;;11.10;95.10;;;;;;10387686;28;20049;-71
2020/12/13 11:43:14;;;;;;;6.20;2.75;;;11.10;94.50;;;;;;10413128;28;20054;-71
2020/12/13 11:48:16;;;;;;;4.95;2.58;;;11.10;94.00;;;;;;10413404;28;20128;-71
2020/12/13 11:53:18;;;;;;;4.80;2.40;;;11.20;93.40;;;;;;10412579;28;20057;-71
2020/12/13 11:58:19;;;;;;;5.95;2.38;;;11.30;92.40;;;;;;10413235;28;20501;-71
2020/12/13 12:03:33;;;;;;;3.70;2.10;;;11.40;92.20;;;;;;10413564;28;20116;-71
2020/12/13 12:08:35;;;;;;;4.75;1.95;;;11.20;90.20;;;;;;10408585;28;20049;-71
2020/12/13 12:13:36;;;;;;;4.68;1.88;;;11.20;90.50;;;;;;10412952;28;20144;-71
2020/12/13 12:18:38;;;;;;;3.83;2.22;;;11.30;90.10;;;;;;10411810;28;20383;-71
2020/12/13 12:23:40;;;;;;;4.95;1.70;;;11.10;87.90;;;;;;10408649;28;20046;-71
2020/12/13 12:28:41;;;;;;;5.30;1.98;;;10.90;87.50;;;;;;10401572;28;20075;-74
2020/12/13 12:33:43;;;;;;;3.63;1.80;;;10.90;87.80;;;;;;10407687;28;20053;-74
2020/12/13 12:38:45;;;;;;;6.45;2.55;;;11.00;88.00;;;;;;10398577;28;20050;-73
2020/12/13 12:43:48;;;;;;;4.85;2.63;;;11.00;86.40;;;;;;10412173;28;20409;-73
2020/12/13 12:48:49;;;;;;;6.47;3.53;;;10.90;86.90;;;;;;10411884;28;20053;-73
2020/12/13 12:53:50;;;;;;;5.43;2.50;;;11.00;86.90;;;;;;10411169;28;20136;-73
2020/12/13 12:59:05;;;;;;;9.63;4.55;;;11.00;86.20;;;;;;10411844;28;20132;-73
2020/12/13 13:04:12;;;;;;;3.92;1.70;;;11.00;85.90;;;;;;10411898;28;20057;-73
2020/12/13 13:09:21;;;;;;;4.72;1.80;;;11.00;84.10;;;;;;10397287;28;20052;-73
2020/12/13 13:14:23;;;;;;;3.90;1.80;;;10.90;83.40;;;;;;10408683;28;20045;-73
2020/12/13 13:19:24;;;;;;;5.07;2.35;;;10.80;82.80;;;;;;10402289;28;20140;-73
2020/12/13 13:24:27;;;;;;;4.55;2.65;;;10.60;82.20;;;;;;10425817;28;20437;-74
2020/12/13 13:29:28;;;;;;;4.28;2.40;;;10.80;82.60;;;;;;10411432;28;20136;-73
2020/12/13 13:34:30;;;;;;;5.47;1.95;;;10.90;82.60;;;;;;10408615;28;20136;-73
2020/12/13 13:39:31;;;;;;;3.58;1.80;;;11.00;82.60;;;;;;10399544;28;20132;-73
2020/12/13 13:44:37;;;;;;;3.65;1.80;;;11.20;82.70;;;;;;10409986;28;20053;-73
2020/12/13 13:55:20;;;;;;;4.43;1.80;;;11.10;81.90;;;;;;10396920;28;20413;-73
2020/12/13 14:00:21;;;;;;;4.93;2.20;;;11.20;82.20;;;;;;10424053;28;20120;-74
2020/12/13 14:05:25;;;;;;;4.30;1.90;;;11.30;81.00;;;;;;10409138;28;20084;-73
2020/12/13 14:10:26;;;;;;;5.90;1.98;;;11.20;81.70;;;;;;10393169;28;20063;-73
2020/12/13 14:15:28;;;;;;;4.22;1.88;;;11.20;80.90;;;;;;10409777;28;20488;-73
2020/12/13 14:20:29;;;;;;;4.03;1.63;;;11.10;81.70;;;;;;10409751;28;20132;-73
2020/12/13 14:25:31;;;;;;;3.83;1.83;;;10.90;81.70;;;;;;10408617;28;20560;-73
2020/12/13 14:30:32;;;;;;;5.78;2.15;;;10.90;82.00;;;;;;10408155;28;20494;-73
2020/12/13 14:35:34;;;;;;;4.20;1.80;;;10.60;82.50;;;;;;10409439;28;20049;-73
2020/12/13 14:40:36;;;;;;;4.05;1.83;;;10.50;83.70;;;;;;10408464;28;20046;-74
2020/12/13 14:45:37;;;;;;;5.95;2.10;;;10.20;84.10;;;;;;10406626;28;20038;-73
2020/12/13 14:50:39;;;;;;;6.80;2.25;;;10.10;85.00;;;;;;10406284;28;20171;-73
2020/12/13 14:55:41;;;;;;;7.68;3.00;;;9.90;85.20;;;;;;10408766;28;20461;-74
2020/12/13 15:00:42;;;;;;;7.40;2.97;;;9.70;86.30;;;;;;10409038;28;20478;-73
2020/12/13 15:05:46;;;;;;;5.80;2.80;;;9.50;87.50;;;;;;10409070;28;20403;-73
2020/12/13 15:10:48;;;;;;;8.88;2.53;;;9.40;88.90;;;;;;10408929;28;20457;-73
2020/12/13 15:20:57;;;;;;;5.43;2.30;;;9.10;90.40;;;;;;10416310;28;20072;-73
2020/12/13 15:25:58;;;;;;;5.75;2.30;;;8.90;90.70;;;;;;10416685;28;20056;-73
2020/12/13 15:31:01;;;;;;;6.18;1.92;;;8.70;91.00;;;;;;10393468;28;20537;-73
2020/12/13 15:36:04;;;;;;;5.82;2.60;;;8.50;91.50;;;;;;10403519;28;20281;-73
2020/12/13 15:41:06;;;;;;;5.68;2.50;;;8.40;91.70;;;;;;10415058;28;20060;-73
2020/12/13 15:46:07;;;;;;;4.63;2.30;;;8.40;92.10;;;;;;10411236;28;20053;-72
2020/12/13 15:51:09;;;;;;;7.85;2.63;;;8.30;92.70;;;;;;10409489;28;20139;-73
2020/12/13 15:56:12;;;;;;;6.72;3.22;;;8.30;92.50;;;;;;10412268;28;20053;-72
2020/12/13 16:01:14;;;;;;;8.65;3.17;;;8.20;92.60;;;;;;10392054;28;20100;-73
2020/12/13 16:06:16;;;;;;;7.43;4.00;;;8.00;92.80;;;;;;10412611;28;20132;-72
2020/12/13 16:11:18;;;;;;;12.18;7.03;;;7.90;93.00;;;;;;10413768;28;20468;-72
2020/12/13 16:16:22;;;;;;;9.50;4.13;;;7.80;93.20;;;;;;10413584;28;20077;-73
2020/12/13 16:21:23;;;;;;;8.90;4.80;;;7.70;93.60;;;;;;10412931;28;20044;-73
2020/12/13 16:26:25;;;;;;;7.68;4.40;;;7.50;93.80;;;;;;10413114;28;20124;-73
2020/12/13 16:31:33;;;;;;;6.38;3.38;;;7.40;94.10;;;;;;10403724;28;20045;-72
2020/12/13 16:36:40;;;;;;;11.02;3.72;;;7.40;94.40;;;;;;10409525;28;20053;-73
2020/12/13 16:41:43;;;;;;;7.50;3.38;;;7.30;94.40;;;;;;10409181;28;20077;-72
2020/12/13 16:46:48;;;;;;;5.82;3.70;;;7.20;94.50;;;;;;10411572;28;20128;-72
2020/12/13 16:53:22;;;;;;;5.55;3.17;;;7.10;94.70;;;;;;10410965;28;20053;-72
2020/12/13 16:57:25;;;;;;;6.05;3.22;;;6.90;95.00;;;;;;10372263;28;20073;-73
2020/12/13 17:02:27;;;;;;;6.97;3.28;;;6.80;95.00;;;;;;10409732;28;20140;-72
2020/12/13 17:07:29;;;;;;;9.23;3.17;;;6.70;95.30;;;;;;10411805;28;20473;-73
2020/12/13 17:12:30;;;;;;;5.68;3.40;;;6.60;94.90;;;;;;10410491;28;20128;-73
2020/12/13 17:17:32;;;;;;;7.45;3.70;;;6.70;95.20;;;;;;10369944;28;20057;-72
2020/12/13 17:22:35;;;;;;;6.13;3.70;;;6.70;95.20;;;;;;10402615;28;20053;-73
2020/12/13 17:27:36;;;;;;;5.78;3.30;;;6.60;95.60;;;;;;10410719;28;20085;-72
2020/12/13 17:32:38;;;;;;;6.95;3.20;;;6.80;95.80;;;;;;10408144;28;20053;-73
2020/12/13 17:37:40;;;;;;;10.75;4.15;;;6.70;95.10;;;;;;10405592;28;20053;-72
2020/12/13 17:42:44;;;;;;;6.88;4.32;;;6.60;95.20;;;;;;10404284;28;20574;-72
2020/12/13 17:47:46;;;;;;;8.38;4.50;;;6.50;95.60;;;;;;10403395;28;20124;-72
2020/12/13 17:53:02;;;;;;;8.27;5.25;;;6.40;95.40;;;;;;10410432;28;20080;-72
2020/12/13 17:58:04;;;;;;;10.48;6.40;;;6.30;95.30;;;;;;10409376;28;20042;-73
2020/12/13 18:03:06;;;;;;;11.32;6.90;;;6.10;95.60;;;;;;10404241;28;20439;-72
2020/12/13 18:08:07;;;;;;;8.88;5.95;;;6.00;95.50;;;;;;10380964;28;20056;-72
2020/12/13 18:13:09;;;;;;;14.25;5.45;;;6.00;95.80;;;;;;10395799;28;20063;-72
2020/12/13 18:18:11;;;;;;;10.20;5.35;;;6.00;95.80;;;;;;10408593;28;20510;-72
2020/12/13 18:23:12;;;;;;;10.75;5.40;;;5.90;95.90;;;;;;10409790;28;20049;-72
2020/12/13 18:28:14;;;;;;;9.65;5.90;;;5.90;95.80;;;;;;10398368;28;20050;-73
2020/12/13 18:33:16;;;;;;;11.32;6.95;;;5.80;95.90;;;;;;10390342;28;20137;-72
2020/12/13 18:38:18;;;;;;;14.43;6.55;;;5.70;95.90;;;;;;10409150;28;20132;-72
2020/12/13 18:43:20;;;;;;;12.07;5.75;;;5.80;96.30;;;;;;10408672;28;20056;-72
2020/12/13 18:48:21;;;;;;;14.80;6.53;;;5.80;96.30;;;;;;10413296;28;20054;-72
2020/12/13 18:53:23;;;;;;;12.50;6.43;;;5.90;96.00;;;;;;10415699;28;20057;-68
2020/12/13 18:58:24;;;;;;;9.80;6.05;;;5.80;95.80;;;;;;10415441;28;20085;-68
2020/12/13 19:04:35;;;;;;;13.43;6.25;;;5.60;96.40;;;;;;10415734;28;20049;-68
2020/12/13 19:08:57;;;;;;;13.90;8.00;;;5.70;96.60;;;;;;10410233;28;20073;-68
2020/12/13 19:14:02;;;;;;;13.55;9.25;;;5.70;96.30;;;;;;10415297;28;20045;-68
2020/12/13 19:19:07;;;;;;;11.85;7.57;;;5.80;96.20;;;;;;10413481;28;20053;-68
2020/12/13 19:24:08;;;;;;;14.23;7.53;;;5.80;96.40;;;;;;10415420;28;20103;-68
2020/12/13 19:29:11;;;;;;;13.98;7.68;;;5.60;96.60;;;;;;10415049;28;20445;-68
2020/12/13 19:34:14;;;;;;;11.20;6.65;;;5.70;96.60;;;;;;10405118;28;20502;-69
2020/12/13 19:39:15;;;;;;;9.90;6.05;;;5.70;96.60;;;;;;10413547;28;20128;-68
2020/12/13 19:44:18;;;;;;;11.02;6.68;;;5.80;96.90;;;;;;10413072;28;20324;-69
2020/12/13 19:49:19;;;;;;;14.30;7.95;;;5.90;96.40;;;;;;10414129;28;20054;-69
2020/12/13 19:54:21;;;;;;;13.32;7.95;;;5.90;96.40;;;;;;10414492;28;20057;-69
2020/12/13 19:59:22;;;;;;;12.68;7.35;;;5.90;96.70;;;;;;10411516;28;20146;-69
2020/12/13 20:04:24;;;;;;;13.15;6.63;;;5.90;96.50;;;;;;10411460;28;20136;-69
2020/12/13 20:09:25;;;;;;;12.35;6.35;;;5.90;96.70;;;;;;10408828;28;20434;-68
2020/12/13 20:25:50;;;;;;;19.67;9.68;;;6.00;96.70;;;;;;10413212;28;20124;-68
2020/12/13 20:36:51;;;;;;;17.85;10.07;;;5.90;96.10;;;;;;10408184;28;20129;-69
2020/12/13 21:17:39;;;;;;;13.68;9.05;;;5.50;97.80;;;;;;10409193;28;20505;-68
2020/12/13 21:22:47;;;;;;;18.45;9.48;;;5.50;97.70;;;;;;10408120;28;20056;-68
2020/12/13 21:33:13;;;;;;;16.45;10.07;;;5.40;97.80;;;;;;10410294;28;20099;-68
2020/12/13 21:49:23;;;;;;;19.95;10.77;;;5.50;97.90;;;;;;10410884;28;20088;-69
2020/12/13 21:54:31;;;;;;;16.27;10.63;;;5.50;98.10;;;;;;10409883;28;20417;-68
2020/12/13 21:59:41;;;;;;;16.95;10.80;;;5.40;97.90;;;;;;10410209;28;20049;-68
2020/12/13 22:31:06;;;;;;;17.55;12.18;;;5.60;97.60;;;;;;10417848;28;20087;-69
2020/12/13 22:36:09;;;;;;;17.88;12.10;;;5.60;97.30;;;;;;10415794;28;20568;-68
2020/12/13 22:41:11;;;;;;;19.88;11.38;;;5.70;97.00;;;;;;10415574;28;20097;-69
2020/12/13 22:46:24;;;;;;;14.02;7.63;;;5.70;96.90;;;;;;10413612;28;20049;-68
2020/12/13 22:51:26;;;;;;;22.63;11.25;;;5.60;97.00;;;;;;10414104;28;20049;-69
2020/12/13 22:56:27;;;;;;;20.95;11.50;;;5.40;96.90;;;;;;10415935;28;20063;-69
2020/12/13 23:01:29;;;;;;;22.23;11.75;;;5.30;97.20;;;;;;10414824;28;20136;-69
2020/12/13 23:06:30;;;;;;;20.67;10.77;;;5.20;97.50;;;;;;10414409;28;20049;-69
2020/12/13 23:11:35;;;;;;;19.80;11.23;;;5.30;97.50;;;;;;10415650;28;20045;-68
2020/12/13 23:16:44;;;;;;;23.17;12.82;;;5.30;97.00;;;;;;10430920;28;20045;-68
2020/12/13 23:21:49;;;;;;;22.73;11.60;;;5.40;96.90;;;;;;10415572;28;20668;-69
2020/12/13 23:26:51;;;;;;;20.40;9.93;;;5.30;97.50;;;;;;10415678;28;20061;-68
2020/12/13 23:31:54;;;;;;;20.50;12.55;;;5.20;97.70;;;;;;10414917;28;20049;-69
2020/12/13 23:36:57;;;;;;;18.88;11.43;;;5.30;97.60;;;;;;10413723;28;20042;-68
2020/12/13 23:41:59;;;;;;;18.08;9.75;;;5.30;98.00;;;;;;10414680;28;20057;-68
2020/12/13 23:47:01;;;;;;;23.08;14.10;;;5.40;97.70;;;;;;10414357;28;20480;-69
2020/12/13 23:52:03;;;;;;;21.58;12.07;;;4.90;97.50;;;;;;10429330;28;20080;-69
2020/12/13 23:57:04;;;;;;;22.58;12.45;;;4.70;98.70;;;;;;10413799;28;20088;-69
